sensor_id;sensor_type;location;lat;lon;timestamp;P1;durP1;ratioP1;P2;durP2;ratioP2
71777;SDS011;59609;52.430;4.668;2023-04-28T00:00:25;7.07;;;3.72;;
71777;SDS011;59609;52.430;4.668;2023-04-28T00:02:50;7.82;;;4.05;;
71777;SDS011;59609;52.430;4.668;2023-04-28T00:05:16;5.82;;;4.35;;
71777;SDS011;59609;52.430;4.668;2023-04-28T00:07:41;8.90;;;3.97;;
71777;SDS011;59609;52.430;4.668;2023-04-28T00:10:07;8.38;;;3.92;;
71777;SDS011;59609;52.430;4.668;2023-04-28T00:12:33;8.20;;;4.15;;
71777;SDS011;59609;52.430;4.668;2023-04-28T00:14:58;6.82;;;4.32;;
71777;SDS011;59609;52.430;4.668;2023-04-28T00:17:23;8.93;;;4.38;;
71777;SDS011;59609;52.430;4.668;2023-04-28T00:19:49;6.15;;;3.92;;
71777;SDS011;59609;52.430;4.668;2023-04-28T00:22:14;7.43;;;4.18;;
71777;SDS011;59609;52.430;4.668;2023-04-28T00:24:39;7.78;;;4.20;;
71777;SDS011;59609;52.430;4.668;2023-04-28T00:27:06;7.85;;;4.43;;
71777;SDS011;59609;52.430;4.668;2023-04-28T00:29:31;6.88;;;4.50;;
71777;SDS011;59609;52.430;4.668;2023-04-28T00:31:57;6.18;;;4.30;;
71777;SDS011;59609;52.430;4.668;2023-04-28T00:34:22;8.32;;;4.80;;
71777;SDS011;59609;52.430;4.668;2023-04-28T00:36:48;7.85;;;4.07;;
71777;SDS011;59609;52.430;4.668;2023-04-28T00:39:14;6.68;;;4.00;;
71777;SDS011;59609;52.430;4.668;2023-04-28T00:41:42;8.25;;;4.38;;
71777;SDS011;59609;52.430;4.668;2023-04-28T00:44:07;9.85;;;4.20;;
71777;SDS011;59609;52.430;4.668;2023-04-28T00:46:32;9.43;;;4.38;;
71777;SDS011;59609;52.430;4.668;2023-04-28T00:48:58;9.68;;;4.93;;
71777;SDS011;59609;52.430;4.668;2023-04-28T00:51:23;8.63;;;4.30;;
71777;SDS011;59609;52.430;4.668;2023-04-28T00:53:51;11.23;;;4.13;;
71777;SDS011;59609;52.430;4.668;2023-04-28T00:56:16;7.03;;;4.03;;
71777;SDS011;59609;52.430;4.668;2023-04-28T00:58:42;6.10;;;3.95;;
71777;SDS011;59609;52.430;4.668;2023-04-28T01:01:08;6.93;;;4.10;;
71777;SDS011;59609;52.430;4.668;2023-04-28T01:03:34;9.35;;;4.13;;
71777;SDS011;59609;52.430;4.668;2023-04-28T01:06:03;7.90;;;4.10;;
71777;SDS011;59609;52.430;4.668;2023-04-28T01:08:30;5.72;;;4.30;;
71777;SDS011;59609;52.430;4.668;2023-04-28T01:10:56;7.32;;;4.22;;
71777;SDS011;59609;52.430;4.668;2023-04-28T01:13:22;7.60;;;4.43;;
71777;SDS011;59609;52.430;4.668;2023-04-28T01:15:47;9.32;;;4.75;;
71777;SDS011;59609;52.430;4.668;2023-04-28T01:18:13;9.23;;;4.88;;
71777;SDS011;59609;52.430;4.668;2023-04-28T01:20:40;8.57;;;4.90;;
71777;SDS011;59609;52.430;4.668;2023-04-28T01:23:10;7.05;;;4.00;;
71777;SDS011;59609;52.430;4.668;2023-04-28T01:25:36;7.80;;;4.03;;
71777;SDS011;59609;52.430;4.668;2023-04-28T01:28:02;9.52;;;4.50;;
71777;SDS011;59609;52.430;4.668;2023-04-28T01:30:27;6.95;;;4.22;;
71777;SDS011;59609;52.430;4.668;2023-04-28T01:32:53;6.28;;;4.05;;
71777;SDS011;59609;52.430;4.668;2023-04-28T01:35:18;10.63;;;4.25;;
71777;SDS011;59609;52.430;4.668;2023-04-28T01:37:43;7.00;;;4.18;;
71777;SDS011;59609;52.430;4.668;2023-04-28T01:40:09;8.82;;;3.85;;
71777;SDS011;59609;52.430;4.668;2023-04-28T01:42:35;8.82;;;4.22;;
71777;SDS011;59609;52.430;4.668;2023-04-28T01:45:00;7.68;;;4.10;;
71777;SDS011;59609;52.430;4.668;2023-04-28T01:47:27;7.82;;;4.40;;
71777;SDS011;59609;52.430;4.668;2023-04-28T01:49:52;7.35;;;3.83;;
71777;SDS011;59609;52.430;4.668;2023-04-28T01:52:18;9.27;;;4.32;;
71777;SDS011;59609;52.430;4.668;2023-04-28T01:54:45;6.93;;;3.90;;
71777;SDS011;59609;52.430;4.668;2023-04-28T01:57:10;9.40;;;4.25;;
71777;SDS011;59609;52.430;4.668;2023-04-28T01:59:35;6.18;;;4.20;;
71777;SDS011;59609;52.430;4.668;2023-04-28T02:02:01;9.75;;;4.20;;
71777;SDS011;59609;52.430;4.668;2023-04-28T02:04:26;6.38;;;4.07;;
71777;SDS011;59609;52.430;4.668;2023-04-28T02:06:51;6.90;;;4.03;;
71777;SDS011;59609;52.430;4.668;2023-04-28T02:09:17;6.32;;;4.00;;
71777;SDS011;59609;52.430;4.668;2023-04-28T02:11:42;7.68;;;3.80;;
71777;SDS011;59609;52.430;4.668;2023-04-28T02:14:07;7.68;;;4.30;;
71777;SDS011;59609;52.430;4.668;2023-04-28T02:16:33;6.38;;;3.47;;
71777;SDS011;59609;52.430;4.668;2023-04-28T02:18:58;7.22;;;3.88;;
71777;SDS011;59609;52.430;4.668;2023-04-28T02:21:23;10.57;;;4.65;;
71777;SDS011;59609;52.430;4.668;2023-04-28T02:23:50;9.93;;;4.45;;
71777;SDS011;59609;52.430;4.668;2023-04-28T02:26:15;7.70;;;4.30;;
71777;SDS011;59609;52.430;4.668;2023-04-28T02:28:41;7.07;;;4.03;;
71777;SDS011;59609;52.430;4.668;2023-04-28T02:31:06;10.95;;;4.20;;
71777;SDS011;59609;52.430;4.668;2023-04-28T02:33:33;9.50;;;4.20;;
71777;SDS011;59609;52.430;4.668;2023-04-28T02:35:59;8.23;;;4.70;;
71777;SDS011;59609;52.430;4.668;2023-04-28T02:38:25;10.55;;;4.40;;
71777;SDS011;59609;52.430;4.668;2023-04-28T02:43:23;6.65;;;3.97;;
71777;SDS011;59609;52.430;4.668;2023-04-28T02:45:49;8.02;;;4.28;;
71777;SDS011;59609;52.430;4.668;2023-04-28T02:48:14;9.18;;;3.88;;
71777;SDS011;59609;52.430;4.668;2023-04-28T02:50:39;7.15;;;3.45;;
71777;SDS011;59609;52.430;4.668;2023-04-28T02:53:05;7.40;;;4.15;;
71777;SDS011;59609;52.430;4.668;2023-04-28T02:55:30;7.88;;;4.00;;
71777;SDS011;59609;52.430;4.668;2023-04-28T02:57:56;7.93;;;3.72;;
71777;SDS011;59609;52.430;4.668;2023-04-28T03:00:21;6.32;;;3.42;;
71777;SDS011;59609;52.430;4.668;2023-04-28T03:02:46;6.38;;;4.22;;
71777;SDS011;59609;52.430;4.668;2023-04-28T03:05:12;6.20;;;3.80;;
71777;SDS011;59609;52.430;4.668;2023-04-28T03:07:37;7.05;;;3.47;;
71777;SDS011;59609;52.430;4.668;2023-04-28T03:10:03;8.18;;;4.00;;
71777;SDS011;59609;52.430;4.668;2023-04-28T03:12:28;6.13;;;3.80;;
71777;SDS011;59609;52.430;4.668;2023-04-28T03:14:54;7.13;;;4.15;;
71777;SDS011;59609;52.430;4.668;2023-04-28T03:17:19;6.65;;;3.67;;
71777;SDS011;59609;52.430;4.668;2023-04-28T03:19:45;7.38;;;3.70;;
71777;SDS011;59609;52.430;4.668;2023-04-28T03:22:10;7.60;;;3.72;;
71777;SDS011;59609;52.430;4.668;2023-04-28T03:24:36;7.40;;;4.03;;
71777;SDS011;59609;52.430;4.668;2023-04-28T03:27:01;8.85;;;4.25;;
71777;SDS011;59609;52.430;4.668;2023-04-28T03:29:27;6.70;;;3.70;;
71777;SDS011;59609;52.430;4.668;2023-04-28T03:31:53;6.00;;;3.92;;
71777;SDS011;59609;52.430;4.668;2023-04-28T03:34:18;10.50;;;3.83;;
71777;SDS011;59609;52.430;4.668;2023-04-28T03:36:43;8.10;;;4.55;;
71777;SDS011;59609;52.430;4.668;2023-04-28T03:39:09;8.32;;;4.15;;
71777;SDS011;59609;52.430;4.668;2023-04-28T03:41:34;9.15;;;4.13;;
71777;SDS011;59609;52.430;4.668;2023-04-28T03:44:00;8.07;;;3.65;;
71777;SDS011;59609;52.430;4.668;2023-04-28T03:46:25;9.43;;;4.10;;
71777;SDS011;59609;52.430;4.668;2023-04-28T03:48:51;7.43;;;4.05;;
71777;SDS011;59609;52.430;4.668;2023-04-28T03:51:17;7.75;;;4.35;;
71777;SDS011;59609;52.430;4.668;2023-04-28T03:53:42;10.90;;;4.18;;
71777;SDS011;59609;52.430;4.668;2023-04-28T03:56:08;8.40;;;4.05;;
71777;SDS011;59609;52.430;4.668;2023-04-28T03:58:33;8.38;;;4.28;;
71777;SDS011;59609;52.430;4.668;2023-04-28T04:00:59;8.40;;;4.70;;
71777;SDS011;59609;52.430;4.668;2023-04-28T04:03:25;8.65;;;4.43;;
71777;SDS011;59609;52.430;4.668;2023-04-28T04:05:51;8.63;;;4.18;;
71777;SDS011;59609;52.430;4.668;2023-04-28T04:08:17;6.45;;;4.22;;
71777;SDS011;59609;52.430;4.668;2023-04-28T04:10:43;9.70;;;4.32;;
71777;SDS011;59609;52.430;4.668;2023-04-28T04:13:08;6.78;;;3.70;;
71777;SDS011;59609;52.430;4.668;2023-04-28T04:15:34;6.63;;;3.90;;
71777;SDS011;59609;52.430;4.668;2023-04-28T04:17:59;8.45;;;4.30;;
71777;SDS011;59609;52.430;4.668;2023-04-28T04:20:25;7.65;;;4.35;;
71777;SDS011;59609;52.430;4.668;2023-04-28T04:22:51;7.75;;;4.05;;
71777;SDS011;59609;52.430;4.668;2023-04-28T04:25:16;6.45;;;4.45;;
71777;SDS011;59609;52.430;4.668;2023-04-28T04:27:42;9.15;;;4.82;;
71777;SDS011;59609;52.430;4.668;2023-04-28T04:30:07;9.75;;;4.35;;
71777;SDS011;59609;52.430;4.668;2023-04-28T04:32:33;7.28;;;4.28;;
71777;SDS011;59609;52.430;4.668;2023-04-28T04:34:58;12.38;;;5.32;;
71777;SDS011;59609;52.430;4.668;2023-04-28T04:37:24;10.38;;;4.85;;
71777;SDS011;59609;52.430;4.668;2023-04-28T04:39:49;8.82;;;4.97;;
71777;SDS011;59609;52.430;4.668;2023-04-28T04:42:15;10.25;;;4.10;;
71777;SDS011;59609;52.430;4.668;2023-04-28T04:44:40;8.15;;;4.65;;
71777;SDS011;59609;52.430;4.668;2023-04-28T04:47:05;7.68;;;4.70;;
71777;SDS011;59609;52.430;4.668;2023-04-28T04:49:31;8.55;;;4.40;;
71777;SDS011;59609;52.430;4.668;2023-04-28T04:51:56;7.85;;;4.28;;
71777;SDS011;59609;52.430;4.668;2023-04-28T04:54:22;8.23;;;4.05;;
71777;SDS011;59609;52.430;4.668;2023-04-28T04:56:47;7.25;;;4.50;;
71777;SDS011;59609;52.430;4.668;2023-04-28T04:59:13;7.90;;;4.60;;
71777;SDS011;59609;52.430;4.668;2023-04-28T05:01:38;9.15;;;5.00;;
71777;SDS011;59609;52.430;4.668;2023-04-28T05:04:03;8.35;;;4.43;;
71777;SDS011;59609;52.430;4.668;2023-04-28T05:06:29;10.32;;;5.50;;
71777;SDS011;59609;52.430;4.668;2023-04-28T05:08:55;9.05;;;4.97;;
71777;SDS011;59609;52.430;4.668;2023-04-28T05:11:22;9.90;;;5.32;;
71777;SDS011;59609;52.430;4.668;2023-04-28T05:13:47;9.30;;;5.32;;
71777;SDS011;59609;52.430;4.668;2023-04-28T05:16:13;11.85;;;6.50;;
71777;SDS011;59609;52.430;4.668;2023-04-28T05:18:38;9.95;;;5.05;;
71777;SDS011;59609;52.430;4.668;2023-04-28T05:21:04;12.05;;;6.03;;
71777;SDS011;59609;52.430;4.668;2023-04-28T05:23:30;15.00;;;6.65;;
71777;SDS011;59609;52.430;4.668;2023-04-28T05:25:56;11.15;;;6.05;;
71777;SDS011;59609;52.430;4.668;2023-04-28T05:28:21;12.52;;;5.70;;
71777;SDS011;59609;52.430;4.668;2023-04-28T05:30:47;12.52;;;6.13;;
71777;SDS011;59609;52.430;4.668;2023-04-28T05:33:12;10.18;;;5.80;;
71777;SDS011;59609;52.430;4.668;2023-04-28T05:35:38;14.73;;;6.05;;
71777;SDS011;59609;52.430;4.668;2023-04-28T05:38:03;9.20;;;5.97;;
71777;SDS011;59609;52.430;4.668;2023-04-28T05:40:29;10.93;;;5.97;;
71777;SDS011;59609;52.430;4.668;2023-04-28T05:42:54;11.70;;;6.38;;
71777;SDS011;59609;52.430;4.668;2023-04-28T05:45:20;12.18;;;6.85;;
71777;SDS011;59609;52.430;4.668;2023-04-28T05:47:45;15.07;;;7.07;;
71777;SDS011;59609;52.430;4.668;2023-04-28T05:50:11;10.60;;;6.38;;
71777;SDS011;59609;52.430;4.668;2023-04-28T05:52:36;10.65;;;5.78;;
71777;SDS011;59609;52.430;4.668;2023-04-28T05:55:01;11.93;;;6.00;;
71777;SDS011;59609;52.430;4.668;2023-04-28T05:57:27;11.20;;;5.70;;
71777;SDS011;59609;52.430;4.668;2023-04-28T05:59:52;14.73;;;6.45;;
71777;SDS011;59609;52.430;4.668;2023-04-28T06:02:18;11.88;;;5.85;;
71777;SDS011;59609;52.430;4.668;2023-04-28T06:04:43;11.93;;;6.38;;
71777;SDS011;59609;52.430;4.668;2023-04-28T06:07:08;11.88;;;6.57;;
71777;SDS011;59609;52.430;4.668;2023-04-28T06:09:34;16.95;;;7.82;;
71777;SDS011;59609;52.430;4.668;2023-04-28T06:12:00;14.65;;;7.57;;
71777;SDS011;59609;52.430;4.668;2023-04-28T06:14:27;14.13;;;7.45;;
71777;SDS011;59609;52.430;4.668;2023-04-28T06:16:53;11.93;;;6.18;;
71777;SDS011;59609;52.430;4.668;2023-04-28T06:19:18;10.07;;;6.07;;
71777;SDS011;59609;52.430;4.668;2023-04-28T06:21:44;12.30;;;6.10;;
71777;SDS011;59609;52.430;4.668;2023-04-28T06:24:10;16.08;;;6.78;;
71777;SDS011;59609;52.430;4.668;2023-04-28T06:26:36;10.02;;;6.07;;
71777;SDS011;59609;52.430;4.668;2023-04-28T06:29:01;10.10;;;6.10;;
71777;SDS011;59609;52.430;4.668;2023-04-28T06:31:27;11.88;;;6.07;;
71777;SDS011;59609;52.430;4.668;2023-04-28T06:33:52;10.70;;;5.65;;
71777;SDS011;59609;52.430;4.668;2023-04-28T06:36:18;12.18;;;6.13;;
71777;SDS011;59609;52.430;4.668;2023-04-28T06:38:43;10.02;;;6.28;;
71777;SDS011;59609;52.430;4.668;2023-04-28T06:41:09;14.00;;;7.45;;
71777;SDS011;59609;52.430;4.668;2023-04-28T06:43:35;11.95;;;6.90;;
71777;SDS011;59609;52.430;4.668;2023-04-28T06:46:01;14.85;;;6.30;;
71777;SDS011;59609;52.430;4.668;2023-04-28T06:48:27;12.77;;;6.18;;
71777;SDS011;59609;52.430;4.668;2023-04-28T06:50:53;12.55;;;6.40;;
71777;SDS011;59609;52.430;4.668;2023-04-28T06:53:18;14.15;;;6.70;;
71777;SDS011;59609;52.430;4.668;2023-04-28T06:55:44;12.77;;;6.47;;
71777;SDS011;59609;52.430;4.668;2023-04-28T06:58:09;10.25;;;6.18;;
71777;SDS011;59609;52.430;4.668;2023-04-28T07:00:35;13.57;;;6.97;;
71777;SDS011;59609;52.430;4.668;2023-04-28T07:03:00;14.25;;;6.88;;
71777;SDS011;59609;52.430;4.668;2023-04-28T07:05:26;11.43;;;7.38;;
71777;SDS011;59609;52.430;4.668;2023-04-28T07:07:52;11.43;;;7.15;;
71777;SDS011;59609;52.430;4.668;2023-04-28T07:10:18;13.23;;;6.90;;
71777;SDS011;59609;52.430;4.668;2023-04-28T07:12:43;12.57;;;6.93;;
71777;SDS011;59609;52.430;4.668;2023-04-28T07:15:09;11.95;;;6.55;;
71777;SDS011;59609;52.430;4.668;2023-04-28T07:17:35;12.07;;;6.88;;
71777;SDS011;59609;52.430;4.668;2023-04-28T07:20:00;13.98;;;7.28;;
71777;SDS011;59609;52.430;4.668;2023-04-28T07:22:25;14.15;;;6.82;;
71777;SDS011;59609;52.430;4.668;2023-04-28T07:24:51;10.85;;;7.03;;
71777;SDS011;59609;52.430;4.668;2023-04-28T07:27:17;13.18;;;7.18;;
71777;SDS011;59609;52.430;4.668;2023-04-28T07:29:42;11.48;;;6.80;;
71777;SDS011;59609;52.430;4.668;2023-04-28T07:32:08;14.63;;;6.53;;
71777;SDS011;59609;52.430;4.668;2023-04-28T07:34:34;14.18;;;7.13;;
71777;SDS011;59609;52.430;4.668;2023-04-28T07:37:01;14.18;;;6.95;;
71777;SDS011;59609;52.430;4.668;2023-04-28T07:39:27;16.25;;;6.93;;
71777;SDS011;59609;52.430;4.668;2023-04-28T07:41:54;13.43;;;7.13;;
71777;SDS011;59609;52.430;4.668;2023-04-28T07:44:21;14.95;;;7.40;;
71777;SDS011;59609;52.430;4.668;2023-04-28T07:46:47;11.90;;;7.05;;
71777;SDS011;59609;52.430;4.668;2023-04-28T07:49:13;12.15;;;6.95;;
71777;SDS011;59609;52.430;4.668;2023-04-28T07:51:38;13.15;;;7.63;;
71777;SDS011;59609;52.430;4.668;2023-04-28T07:54:04;13.77;;;7.68;;
71777;SDS011;59609;52.430;4.668;2023-04-28T07:56:29;14.32;;;7.78;;
71777;SDS011;59609;52.430;4.668;2023-04-28T07:58:55;12.73;;;7.30;;
71777;SDS011;59609;52.430;4.668;2023-04-28T08:01:21;16.48;;;7.32;;
71777;SDS011;59609;52.430;4.668;2023-04-28T08:03:46;11.05;;;7.35;;
71777;SDS011;59609;52.430;4.668;2023-04-28T08:06:12;11.52;;;6.60;;
71777;SDS011;59609;52.430;4.668;2023-04-28T08:08:37;16.40;;;7.60;;
71777;SDS011;59609;52.430;4.668;2023-04-28T08:11:03;15.63;;;7.45;;
71777;SDS011;59609;52.430;4.668;2023-04-28T08:13:29;11.93;;;8.20;;
71777;SDS011;59609;52.430;4.668;2023-04-28T08:15:54;15.13;;;7.90;;
71777;SDS011;59609;52.430;4.668;2023-04-28T08:18:20;18.48;;;8.45;;
71777;SDS011;59609;52.430;4.668;2023-04-28T08:20:46;15.70;;;8.73;;
71777;SDS011;59609;52.430;4.668;2023-04-28T08:23:12;17.75;;;8.73;;
71777;SDS011;59609;52.430;4.668;2023-04-28T08:25:37;17.20;;;8.75;;
71777;SDS011;59609;52.430;4.668;2023-04-28T08:28:03;14.90;;;8.63;;
71777;SDS011;59609;52.430;4.668;2023-04-28T08:30:30;14.50;;;8.43;;
71777;SDS011;59609;52.430;4.668;2023-04-28T08:32:55;16.63;;;7.70;;
71777;SDS011;59609;52.430;4.668;2023-04-28T08:35:21;15.38;;;8.48;;
71777;SDS011;59609;52.430;4.668;2023-04-28T08:37:46;17.92;;;9.15;;
71777;SDS011;59609;52.430;4.668;2023-04-28T08:40:13;13.27;;;7.72;;
71777;SDS011;59609;52.430;4.668;2023-04-28T08:42:39;16.63;;;8.20;;
71777;SDS011;59609;52.430;4.668;2023-04-28T08:45:05;17.15;;;9.38;;
71777;SDS011;59609;52.430;4.668;2023-04-28T08:47:35;15.27;;;8.73;;
71777;SDS011;59609;52.430;4.668;2023-04-28T08:50:05;15.82;;;8.25;;
71777;SDS011;59609;52.430;4.668;2023-04-28T08:52:32;17.52;;;8.25;;
71777;SDS011;59609;52.430;4.668;2023-04-28T08:54:59;15.68;;;8.82;;
71777;SDS011;59609;52.430;4.668;2023-04-28T08:57:27;17.83;;;9.63;;
71777;SDS011;59609;52.430;4.668;2023-04-28T08:59:57;15.05;;;8.60;;
71777;SDS011;59609;52.430;4.668;2023-04-28T09:02:23;16.30;;;9.65;;
71777;SDS011;59609;52.430;4.668;2023-04-28T09:04:48;19.13;;;10.05;;
71777;SDS011;59609;52.430;4.668;2023-04-28T09:07:14;18.77;;;9.55;;
71777;SDS011;59609;52.430;4.668;2023-04-28T09:09:39;15.57;;;9.63;;
71777;SDS011;59609;52.430;4.668;2023-04-28T09:12:05;14.93;;;8.73;;
71777;SDS011;59609;52.430;4.668;2023-04-28T09:14:32;14.95;;;8.88;;
71777;SDS011;59609;52.430;4.668;2023-04-28T09:16:59;15.73;;;8.68;;
71777;SDS011;59609;52.430;4.668;2023-04-28T09:19:34;17.17;;;9.55;;
71777;SDS011;59609;52.430;4.668;2023-04-28T09:22:00;23.30;;;9.98;;
71777;SDS011;59609;52.430;4.668;2023-04-28T09:26:58;18.10;;;10.55;;
71777;SDS011;59609;52.430;4.668;2023-04-28T09:29:25;22.63;;;11.68;;
71777;SDS011;59609;52.430;4.668;2023-04-28T09:31:50;23.50;;;11.52;;
71777;SDS011;59609;52.430;4.668;2023-04-28T09:34:17;21.30;;;11.90;;
71777;SDS011;59609;52.430;4.668;2023-04-28T09:36:42;21.38;;;11.90;;
71777;SDS011;59609;52.430;4.668;2023-04-28T09:39:08;22.40;;;13.07;;
71777;SDS011;59609;52.430;4.668;2023-04-28T09:41:34;20.77;;;13.75;;
71777;SDS011;59609;52.430;4.668;2023-04-28T09:46:39;23.33;;;13.48;;
71777;SDS011;59609;52.430;4.668;2023-04-28T09:49:04;25.77;;;13.98;;
71777;SDS011;59609;52.430;4.668;2023-04-28T09:51:30;25.42;;;14.27;;
71777;SDS011;59609;52.430;4.668;2023-04-28T09:53:55;23.35;;;13.60;;
71777;SDS011;59609;52.430;4.668;2023-04-28T09:58:51;26.98;;;13.73;;
71777;SDS011;59609;52.430;4.668;2023-04-28T10:01:18;22.88;;;14.73;;
71777;SDS011;59609;52.430;4.668;2023-04-28T10:03:43;27.63;;;15.80;;
71777;SDS011;59609;52.430;4.668;2023-04-28T10:06:10;26.15;;;15.43;;
71777;SDS011;59609;52.430;4.668;2023-04-28T10:08:35;25.10;;;14.23;;
71777;SDS011;59609;52.430;4.668;2023-04-28T10:11:00;25.45;;;15.43;;
71777;SDS011;59609;52.430;4.668;2023-04-28T10:13:26;22.30;;;13.27;;
71777;SDS011;59609;52.430;4.668;2023-04-28T10:15:53;22.48;;;13.63;;
71777;SDS011;59609;52.430;4.668;2023-04-28T10:18:19;21.48;;;13.80;;
71777;SDS011;59609;52.430;4.668;2023-04-28T10:20:48;22.50;;;12.95;;
71777;SDS011;59609;52.430;4.668;2023-04-28T10:26:12;19.55;;;11.95;;
71777;SDS011;59609;52.430;4.668;2023-04-28T10:28:49;18.98;;;11.30;;
71777;SDS011;59609;52.430;4.668;2023-04-28T10:31:16;20.33;;;12.48;;
71777;SDS011;59609;52.430;4.668;2023-04-28T10:33:45;20.02;;;12.48;;
71777;SDS011;59609;52.430;4.668;2023-04-28T10:36:46;22.63;;;12.82;;
71777;SDS011;59609;52.430;4.668;2023-04-28T10:39:18;18.70;;;12.00;;
71777;SDS011;59609;52.430;4.668;2023-04-28T10:41:47;22.50;;;12.85;;
71777;SDS011;59609;52.430;4.668;2023-04-28T10:47:00;26.15;;;14.40;;
71777;SDS011;59609;52.430;4.668;2023-04-28T10:58:34;31.77;;;15.38;;
71777;SDS011;59609;52.430;4.668;2023-04-28T11:00:52;28.27;;;15.38;;
71777;SDS011;59609;52.430;4.668;2023-04-28T11:08:47;30.05;;;15.48;;
71777;SDS011;59609;52.430;4.668;2023-04-28T11:13:39;31.55;;;16.20;;
71777;SDS011;59609;52.430;4.668;2023-04-28T11:16:05;26.77;;;14.75;;
71777;SDS011;59609;52.430;4.668;2023-04-28T11:18:43;23.85;;;12.40;;
71777;SDS011;59609;52.430;4.668;2023-04-28T11:21:13;22.55;;;12.48;;
71777;SDS011;59609;52.430;4.668;2023-04-28T11:23:38;20.33;;;10.82;;
71777;SDS011;59609;52.430;4.668;2023-04-28T11:26:04;16.58;;;9.95;;
71777;SDS011;59609;52.430;4.668;2023-04-28T11:28:30;14.68;;;7.18;;
71777;SDS011;59609;52.430;4.668;2023-04-28T11:31:11;12.18;;;6.50;;
71777;SDS011;59609;52.430;4.668;2023-04-28T11:33:37;6.57;;;3.25;;
71777;SDS011;59609;52.430;4.668;2023-04-28T11:36:03;5.85;;;3.63;;
71777;SDS011;59609;52.430;4.668;2023-04-28T11:38:29;6.95;;;3.30;;
71777;SDS011;59609;52.430;4.668;2023-04-28T11:41:06;4.50;;;3.35;;
71777;SDS011;59609;52.430;4.668;2023-04-28T11:43:32;5.65;;;2.72;;
71777;SDS011;59609;52.430;4.668;2023-04-28T11:45:57;5.00;;;2.95;;
71777;SDS011;59609;52.430;4.668;2023-04-28T11:48:25;6.07;;;3.00;;
71777;SDS011;59609;52.430;4.668;2023-04-28T11:50:51;6.03;;;2.72;;
71777;SDS011;59609;52.430;4.668;2023-04-28T11:53:16;6.18;;;2.75;;
71777;SDS011;59609;52.430;4.668;2023-04-28T11:55:42;7.50;;;3.08;;
71777;SDS011;59609;52.430;4.668;2023-04-28T11:58:20;7.85;;;3.00;;
71777;SDS011;59609;52.430;4.668;2023-04-28T12:01:09;7.10;;;2.95;;
71777;SDS011;59609;52.430;4.668;2023-04-28T12:03:46;7.60;;;3.47;;
71777;SDS011;59609;52.430;4.668;2023-04-28T12:06:15;8.55;;;3.30;;
71777;SDS011;59609;52.430;4.668;2023-04-28T12:08:44;10.15;;;3.10;;
71777;SDS011;59609;52.430;4.668;2023-04-28T12:11:10;8.55;;;2.90;;
71777;SDS011;59609;52.430;4.668;2023-04-28T12:13:41;7.07;;;3.00;;
71777;SDS011;59609;52.430;4.668;2023-04-28T12:16:07;10.27;;;4.22;;
71777;SDS011;59609;52.430;4.668;2023-04-28T12:18:33;12.15;;;3.60;;
71777;SDS011;59609;52.430;4.668;2023-04-28T12:21:03;11.48;;;3.75;;
71777;SDS011;59609;52.430;4.668;2023-04-28T12:23:33;8.95;;;3.33;;
71777;SDS011;59609;52.430;4.668;2023-04-28T12:26:00;8.88;;;3.70;;
71777;SDS011;59609;52.430;4.668;2023-04-28T12:28:36;9.20;;;3.35;;
71777;SDS011;59609;52.430;4.668;2023-04-28T12:31:03;10.25;;;3.90;;
71777;SDS011;59609;52.430;4.668;2023-04-28T12:33:30;13.57;;;4.22;;
71777;SDS011;59609;52.430;4.668;2023-04-28T12:35:58;15.00;;;3.92;;
71777;SDS011;59609;52.430;4.668;2023-04-28T12:38:23;13.18;;;4.35;;
71777;SDS011;59609;52.430;4.668;2023-04-28T12:40:49;15.15;;;4.38;;
71777;SDS011;59609;52.430;4.668;2023-04-28T12:43:15;15.77;;;4.18;;
71777;SDS011;59609;52.430;4.668;2023-04-28T12:45:40;19.67;;;5.22;;
71777;SDS011;59609;52.430;4.668;2023-04-28T12:48:06;14.43;;;4.68;;
71777;SDS011;59609;52.430;4.668;2023-04-28T12:50:32;12.52;;;3.88;;
71777;SDS011;59609;52.430;4.668;2023-04-28T12:52:57;13.52;;;4.78;;
71777;SDS011;59609;52.430;4.668;2023-04-28T12:55:23;18.20;;;5.47;;
71777;SDS011;59609;52.430;4.668;2023-04-28T12:57:49;16.80;;;4.93;;
71777;SDS011;59609;52.430;4.668;2023-04-28T13:00:15;19.63;;;5.68;;
71777;SDS011;59609;52.430;4.668;2023-04-28T13:02:42;14.75;;;4.75;;
71777;SDS011;59609;52.430;4.668;2023-04-28T13:05:07;18.70;;;4.80;;
71777;SDS011;59609;52.430;4.668;2023-04-28T13:07:33;15.18;;;4.35;;
71777;SDS011;59609;52.430;4.668;2023-04-28T13:09:59;19.52;;;5.70;;
71777;SDS011;59609;52.430;4.668;2023-04-28T13:12:24;20.90;;;5.78;;
71777;SDS011;59609;52.430;4.668;2023-04-28T13:14:49;21.65;;;6.32;;
71777;SDS011;59609;52.430;4.668;2023-04-28T13:17:15;23.27;;;6.70;;
71777;SDS011;59609;52.430;4.668;2023-04-28T13:19:40;20.17;;;5.93;;
71777;SDS011;59609;52.430;4.668;2023-04-28T13:22:06;19.10;;;6.28;;
71777;SDS011;59609;52.430;4.668;2023-04-28T13:24:33;19.95;;;6.20;;
71777;SDS011;59609;52.430;4.668;2023-04-28T13:26:59;22.15;;;7.53;;
71777;SDS011;59609;52.430;4.668;2023-04-28T13:29:26;25.77;;;7.28;;
71777;SDS011;59609;52.430;4.668;2023-04-28T13:31:51;18.75;;;6.57;;
71777;SDS011;59609;52.430;4.668;2023-04-28T13:34:17;24.42;;;7.72;;
71777;SDS011;59609;52.430;4.668;2023-04-28T13:36:43;19.58;;;8.38;;
71777;SDS011;59609;52.430;4.668;2023-04-28T13:39:09;18.83;;;6.70;;
71777;SDS011;59609;52.430;4.668;2023-04-28T13:41:35;17.35;;;7.00;;
71777;SDS011;59609;52.430;4.668;2023-04-28T13:44:01;21.92;;;7.30;;
71777;SDS011;59609;52.430;4.668;2023-04-28T13:46:27;21.48;;;8.05;;
71777;SDS011;59609;52.430;4.668;2023-04-28T13:48:52;15.45;;;6.70;;
71777;SDS011;59609;52.430;4.668;2023-04-28T13:51:18;17.23;;;6.68;;
71777;SDS011;59609;52.430;4.668;2023-04-28T13:53:44;18.13;;;7.63;;
71777;SDS011;59609;52.430;4.668;2023-04-28T13:56:09;16.52;;;6.57;;
71777;SDS011;59609;52.430;4.668;2023-04-28T13:58:35;18.67;;;7.10;;
71777;SDS011;59609;52.430;4.668;2023-04-28T14:01:01;14.75;;;6.45;;
71777;SDS011;59609;52.430;4.668;2023-04-28T14:03:27;15.95;;;6.10;;
71777;SDS011;59609;52.430;4.668;2023-04-28T14:05:54;20.13;;;6.80;;
71777;SDS011;59609;52.430;4.668;2023-04-28T14:08:20;12.43;;;6.00;;
71777;SDS011;59609;52.430;4.668;2023-04-28T14:10:47;17.85;;;5.97;;
71777;SDS011;59609;52.430;4.668;2023-04-28T14:13:13;12.10;;;5.47;;
71777;SDS011;59609;52.430;4.668;2023-04-28T14:15:39;13.30;;;5.78;;
71777;SDS011;59609;52.430;4.668;2023-04-28T14:18:05;13.13;;;5.70;;
71777;SDS011;59609;52.430;4.668;2023-04-28T14:20:31;11.60;;;5.32;;
71777;SDS011;59609;52.430;4.668;2023-04-28T14:22:57;11.45;;;5.80;;
71777;SDS011;59609;52.430;4.668;2023-04-28T14:25:23;15.13;;;6.18;;
71777;SDS011;59609;52.430;4.668;2023-04-28T14:27:48;10.38;;;5.78;;
71777;SDS011;59609;52.430;4.668;2023-04-28T14:30:14;12.65;;;5.30;;
71777;SDS011;59609;52.430;4.668;2023-04-28T14:32:40;14.98;;;6.00;;
71777;SDS011;59609;52.430;4.668;2023-04-28T14:35:06;18.40;;;6.20;;
71777;SDS011;59609;52.430;4.668;2023-04-28T14:37:31;14.25;;;5.97;;
71777;SDS011;59609;52.430;4.668;2023-04-28T14:39:57;13.82;;;5.93;;
71777;SDS011;59609;52.430;4.668;2023-04-28T14:42:27;14.15;;;6.63;;
71777;SDS011;59609;52.430;4.668;2023-04-28T14:44:55;13.82;;;6.25;;
71777;SDS011;59609;52.430;4.668;2023-04-28T14:47:21;13.25;;;5.57;;
71777;SDS011;59609;52.430;4.668;2023-04-28T14:49:46;13.38;;;6.45;;
71777;SDS011;59609;52.430;4.668;2023-04-28T14:52:12;16.00;;;6.57;;
71777;SDS011;59609;52.430;4.668;2023-04-28T14:54:38;15.75;;;5.88;;
71777;SDS011;59609;52.430;4.668;2023-04-28T14:57:03;16.02;;;6.80;;
71777;SDS011;59609;52.430;4.668;2023-04-28T14:59:29;16.60;;;6.47;;
71777;SDS011;59609;52.430;4.668;2023-04-28T15:01:54;17.45;;;7.57;;
71777;SDS011;59609;52.430;4.668;2023-04-28T15:04:20;18.08;;;6.57;;